createdAt,value
2022-12-31T00:00:00.624Z,0
2022-12-31T00:05:00.642Z,0
2022-12-31T00:10:00.612Z,0
2022-12-31T00:15:00.649Z,0
2022-12-31T00:20:00.631Z,0
2022-12-31T00:25:00.753Z,0
2022-12-31T00:30:04.717Z,0
2022-12-31T00:35:00.650Z,0
2022-12-31T00:40:00.699Z,0
2022-12-31T00:45:00.627Z,0
2022-12-31T00:50:00.588Z,0
2022-12-31T00:55:00.584Z,0
2022-12-31T01:00:00.793Z,0
2022-12-31T01:05:00.640Z,0
2022-12-31T01:10:00.690Z,0
2022-12-31T01:15:00.621Z,0
2022-12-31T01:20:00.656Z,0
2022-12-31T01:25:00.610Z,0
2022-12-31T01:30:00.676Z,0
2022-12-31T01:35:00.644Z,0
2022-12-31T01:40:00.675Z,0
2022-12-31T01:45:00.650Z,0
2022-12-31T01:50:00.671Z,0
2022-12-31T01:55:00.634Z,0
2022-12-31T02:00:00.672Z,0
2022-12-31T02:05:00.677Z,0
2022-12-31T02:10:00.651Z,0
2022-12-31T02:15:00.648Z,0
2022-12-31T02:20:00.664Z,0
2022-12-31T02:25:00.638Z,0
2022-12-31T02:30:00.704Z,0
2022-12-31T02:35:00.628Z,0
2022-12-31T02:40:00.687Z,0
2022-12-31T02:45:00.629Z,0
2022-12-31T02:50:03.747Z,0
2022-12-31T02:55:00.661Z,0
2022-12-31T03:00:00.684Z,0
2022-12-31T03:05:00.780Z,0
2022-12-31T03:10:00.650Z,0
2022-12-31T03:15:00.733Z,0
2022-12-31T03:20:00.660Z,0
2022-12-31T03:25:00.605Z,0
2022-12-31T03:30:00.691Z,0
2022-12-31T03:35:00.641Z,0
2022-12-31T03:40:00.595Z,0
2022-12-31T03:45:00.649Z,0
2022-12-31T03:50:00.640Z,0
2022-12-31T03:55:00.625Z,0
2022-12-31T04:00:00.645Z,0
2022-12-31T04:05:00.692Z,0
2022-12-31T04:10:00.695Z,0
2022-12-31T04:15:00.749Z,0
2022-12-31T04:20:00.638Z,0
2022-12-31T04:25:00.644Z,0
2022-12-31T04:30:00.677Z,0
2022-12-31T04:35:00.688Z,0
2022-12-31T04:40:05.776Z,0
2022-12-31T04:45:00.666Z,0
2022-12-31T04:50:00.650Z,0
2022-12-31T04:55:00.749Z,0
2022-12-31T05:00:00.700Z,0
2022-12-31T05:05:00.651Z,0
2022-12-31T05:10:00.681Z,0
2022-12-31T05:15:00.671Z,0
2022-12-31T05:20:00.651Z,0
2022-12-31T05:25:00.692Z,0
2022-12-31T05:30:00.826Z,0
2022-12-31T05:35:00.699Z,0
2022-12-31T05:40:00.713Z,0
2022-12-31T05:45:00.658Z,0
2022-12-31T05:50:00.654Z,0
2022-12-31T05:55:00.690Z,0
2022-12-31T06:00:00.671Z,0
2022-12-31T06:05:00.589Z,0
2022-12-31T06:10:00.709Z,0
2022-12-31T06:15:00.633Z,0
2022-12-31T06:20:01.279Z,0
2022-12-31T06:25:00.620Z,0
2022-12-31T06:30:00.681Z,0
2022-12-31T06:35:00.631Z,0
2022-12-31T06:40:00.616Z,0
2022-12-31T06:45:00.636Z,0
2022-12-31T06:50:00.594Z,0
2022-12-31T06:55:00.609Z,0
2022-12-31T07:00:00.795Z,0
2022-12-31T07:05:00.636Z,0
2022-12-31T07:10:00.683Z,0
2022-12-31T07:15:00.705Z,2
2022-12-31T07:20:00.686Z,4
2022-12-31T07:25:00.679Z,7
2022-12-31T07:30:00.692Z,14
2022-12-31T07:35:00.693Z,17
2022-12-31T07:40:00.741Z,23
2022-12-31T07:45:01.015Z,34
2022-12-31T07:50:00.727Z,28
2022-12-31T07:55:00.674Z,42
2022-12-31T08:00:00.706Z,70
2022-12-31T08:05:00.659Z,110
2022-12-31T08:10:00.711Z,98
2022-12-31T08:15:00.602Z,139
2022-12-31T08:20:00.654Z,125
2022-12-31T08:25:00.702Z,164
2022-12-31T08:30:00.729Z,202
2022-12-31T08:35:00.629Z,275
2022-12-31T08:40:00.910Z,324
2022-12-31T08:45:00.618Z,324
2022-12-31T08:50:00.676Z,324
2022-12-31T08:55:00.700Z,288
2022-12-31T09:00:00.713Z,274
2022-12-31T09:05:00.710Z,529
2022-12-31T09:10:00.678Z,535
2022-12-31T09:15:00.602Z,547
2022-12-31T09:20:00.663Z,483
2022-12-31T09:25:00.701Z,592
2022-12-31T09:30:00.621Z,563
2022-12-31T09:35:00.612Z,1295
2022-12-31T09:40:00.662Z,1004
2022-12-31T09:45:00.604Z,2523
2022-12-31T09:50:00.633Z,2880
2022-12-31T09:55:00.612Z,2880
2022-12-31T10:00:00.797Z,3231
2022-12-31T10:05:00.815Z,2875
2022-12-31T10:10:00.787Z,2807
2022-12-31T10:15:00.758Z,2510
2022-12-31T10:20:00.730Z,1972
2022-12-31T10:25:00.681Z,2229
2022-12-31T10:30:00.719Z,2215
2022-12-31T10:35:00.605Z,1547
2022-12-31T10:40:00.866Z,1349
2022-12-31T10:45:00.599Z,2504
2022-12-31T10:50:00.655Z,1637
2022-12-31T10:55:00.662Z,1890
2022-12-31T11:00:00.843Z,2344
2022-12-31T11:05:00.630Z,1599
2022-12-31T11:10:00.619Z,1787
2022-12-31T11:15:00.598Z,1542
2022-12-31T11:20:00.670Z,1232
2022-12-31T11:25:00.632Z,1611
2022-12-31T11:30:00.651Z,2378
2022-12-31T11:35:00.591Z,1505
2022-12-31T11:40:00.665Z,1319
2022-12-31T11:45:00.675Z,871
2022-12-31T11:50:00.825Z,1014
2022-12-31T11:55:00.597Z,2460
2022-12-31T12:00:00.587Z,2570
2022-12-31T12:05:03.811Z,1882
2022-12-31T12:10:00.635Z,1481
2022-12-31T12:15:00.609Z,2065
2022-12-31T12:20:00.668Z,704
2022-12-31T12:25:00.603Z,2422
2022-12-31T12:30:00.610Z,1828
2022-12-31T12:35:00.908Z,1622
2022-12-31T12:40:00.616Z,1253
2022-12-31T12:45:00.648Z,863
2022-12-31T12:50:00.683Z,1472
2022-12-31T12:55:00.643Z,1009
2022-12-31T13:00:00.630Z,774
2022-12-31T13:05:00.630Z,709
2022-12-31T13:10:00.745Z,662
2022-12-31T13:15:00.774Z,692
2022-12-31T13:20:00.633Z,1093
2022-12-31T13:25:00.820Z,1072
2022-12-31T13:30:00.637Z,1199
2022-12-31T13:35:00.613Z,806
2022-12-31T13:40:00.647Z,806
2022-12-31T13:45:00.672Z,556
2022-12-31T13:50:00.643Z,626
2022-12-31T13:55:00.691Z,421
2022-12-31T14:00:00.747Z,470
2022-12-31T14:05:00.633Z,618
2022-12-31T14:10:00.664Z,442
2022-12-31T14:15:00.694Z,510
2022-12-31T14:20:00.636Z,731
2022-12-31T14:25:00.614Z,943
2022-12-31T14:30:00.717Z,668
2022-12-31T14:35:00.811Z,507
2022-12-31T14:40:00.609Z,356
2022-12-31T14:45:00.694Z,216
2022-12-31T14:50:00.655Z,214
2022-12-31T14:55:00.631Z,153
2022-12-31T15:00:00.711Z,147
2022-12-31T15:05:00.618Z,115
2022-12-31T15:10:00.725Z,89
2022-12-31T15:15:00.703Z,62
2022-12-31T15:20:00.747Z,74
2022-12-31T15:25:00.705Z,49
2022-12-31T15:30:00.691Z,49
2022-12-31T15:35:00.620Z,28
2022-12-31T15:40:00.615Z,25
2022-12-31T15:45:00.660Z,25
2022-12-31T15:50:00.769Z,18
2022-12-31T15:55:00.780Z,7
2022-12-31T16:00:00.720Z,4
2022-12-31T16:05:00.610Z,3
2022-12-31T16:10:00.649Z,2
2022-12-31T16:15:00.662Z,0
2022-12-31T16:20:00.628Z,4
2022-12-31T16:25:34.333Z,0
2022-12-31T16:30:00.930Z,0
2022-12-31T16:35:00.632Z,0
2022-12-31T16:40:00.619Z,0
2022-12-31T16:45:00.614Z,0
2022-12-31T16:50:00.652Z,0
2022-12-31T16:55:00.643Z,0
2022-12-31T17:00:00.646Z,0
2022-12-31T17:05:00.628Z,0
2022-12-31T17:10:00.692Z,0
2022-12-31T17:15:00.622Z,0
2022-12-31T17:20:00.661Z,0
2022-12-31T17:25:00.796Z,0
2022-12-31T17:30:00.686Z,0
2022-12-31T17:35:00.763Z,0
2022-12-31T17:40:17.401Z,0
2022-12-31T17:45:00.707Z,0
2022-12-31T17:50:00.632Z,0
2022-12-31T17:55:00.653Z,0
2022-12-31T18:00:00.741Z,0
2022-12-31T18:05:00.683Z,0
2022-12-31T18:10:00.604Z,0
2022-12-31T18:15:00.664Z,0
2022-12-31T18:20:05.354Z,0
2022-12-31T18:25:00.624Z,0
2022-12-31T18:30:04.866Z,0
2022-12-31T18:35:00.632Z,0
2022-12-31T18:40:00.605Z,0
2022-12-31T18:45:00.603Z,0
2022-12-31T18:50:00.684Z,0
2022-12-31T18:55:00.662Z,0
2022-12-31T19:00:00.739Z,0
2022-12-31T19:05:00.818Z,0
2022-12-31T19:10:00.672Z,0
2022-12-31T19:15:00.713Z,0
2022-12-31T19:20:00.753Z,0
2022-12-31T19:25:00.604Z,0
2022-12-31T19:30:00.715Z,0
2022-12-31T19:35:00.623Z,0
2022-12-31T19:40:00.619Z,0
2022-12-31T19:45:00.688Z,0
2022-12-31T19:50:00.702Z,0
2022-12-31T19:55:00.751Z,0
2022-12-31T20:00:00.648Z,0
2022-12-31T20:05:00.767Z,0
2022-12-31T20:10:00.666Z,0
2022-12-31T20:15:00.667Z,0
2022-12-31T20:20:00.690Z,0
2022-12-31T20:25:00.778Z,0
2022-12-31T20:30:00.722Z,0
2022-12-31T20:35:00.724Z,0
2022-12-31T20:40:00.667Z,0
2022-12-31T20:45:00.689Z,0
2022-12-31T20:50:11.482Z,0
2022-12-31T20:55:00.755Z,0
2022-12-31T21:00:02.773Z,0
2022-12-31T21:05:00.811Z,0
2022-12-31T21:10:00.609Z,0
2022-12-31T21:15:00.755Z,0
2022-12-31T21:20:00.612Z,0
2022-12-31T21:25:00.689Z,0
2022-12-31T21:30:19.799Z,0
2022-12-31T21:35:40.356Z,0
2022-12-31T21:40:00.765Z,0
2022-12-31T21:45:00.624Z,0
2022-12-31T21:50:00.769Z,0
2022-12-31T21:55:00.779Z,0
2022-12-31T22:00:32.028Z,0
2022-12-31T22:05:02.673Z,0
2022-12-31T22:10:00.652Z,0
2022-12-31T22:15:15.036Z,0
2022-12-31T22:20:25.740Z,0
2022-12-31T22:25:00.710Z,0
2022-12-31T22:30:00.615Z,0
2022-12-31T22:35:00.712Z,0
2022-12-31T22:40:00.667Z,0
2022-12-31T22:45:00.630Z,0
2022-12-31T22:50:00.594Z,0
2022-12-31T22:55:00.593Z,0
2022-12-31T23:00:00.756Z,0
2022-12-31T23:05:15.376Z,0
2022-12-31T23:10:00.738Z,0
2022-12-31T23:15:00.599Z,3
2022-12-31T23:20:00.668Z,0
2022-12-31T23:25:00.702Z,0
2022-12-31T23:30:00.622Z,6
2022-12-31T23:35:06.153Z,0
2022-12-31T23:40:00.628Z,0
2022-12-31T23:45:00.587Z,0
2022-12-31T23:50:00.673Z,0
2022-12-31T23:55:00.751Z,0
